La Grange, CA (95329)

10:16 PM PDT on August 28, 2014 (GMT -0700)
Boat Club | Change Station
CLOSE
Current Station
Personal Weather Station
Location: Snelling, CA
Elevation: 950 ft
Nearby Weather Stations

Elev 950 ft 37.62 °N, 120.28 °W | Updated 16 seconds ago

Clear
Clear
83.5 °F
Feels Like 82 °F
N
5.0
Wind Variable Wind from NNW
Gusts 7.0 mph

Today
High -- | Low -- °F
--% Chance of Precip.
Yesterday
High -- | Low -- °F
Precip. -- in
6:28 AM 7:36 PM
Waxing Crescent, 12% visible
Pressure 29.99 in
Visibility 10.0 miles
Clouds Clear
Heat Index 82 °F
Dew Point 53 °F
Humidity 35%
Rainfall 0.00 in
Snow Depth Not available.
UV 0 out of 12
Pollen 9.10 out of 12
Ozone Good
PM2.5 Good
Flu Activity Not available.
METAR KO22 290455Z AUTO 00000KT 10SM CLR 22/08 A2999 RMK AO1

More Conditions Fewer Conditions

Pressure 29.99 in
Visibility 10.0 miles
Clouds Clear
Heat Index 82 °F
Dew Point 53 °F
Humidity 35%
Rainfall 0.00 in
Snow Depth Not available.
UV 0 out of 12
Pollen 9.10 out of 12
Ozone Good
PM2.5 Good
Flu Activity Not available.
METAR KO22 290455Z AUTO 00000KT 10SM CLR 22/08 A2999 RMK AO1

More Conditions Fewer Conditions

10-Day Weather Forecast

Almanac

Astronomy

Aug. 28, 2014 Rise Set
Actual Time 6:28 AM PDT 7:36 PM PDT
Civil Twilight 6:01 AM PDT 8:03 PM PDT
Nautical Twilight 5:28 AM PDT 8:35 PM PDT
Astronomical Twilight 4:55 AM PDT 9:08 PM PDT
Moon 9:21 AM PDT (8/28) 9:07 PM PDT (8/28)
Length of Visible Light 14h 02m
Length of Day
13h 08m
Tomorrow will be 2m 18s shorter.
Waxing Crescent, 12% of the Moon is Illuminated
Aug 29
Waxing Crescent
Sep 2
First Quarter
Sep 8
Full
Sep 15
Last Quarter
Sep 24
New

Yesterday's Extremes

State Highs State Lows

Community

WunderPhotos

Upload Photos

1,748,192 photos uploaded!

Nearby

Air Quality

  Air Quality AQ Index Pollutant
Yesterday Unhealthy for Sensitive Groups
OZONE
Yesterday Moderate
PM2.5
Current Good
OZONE
Current Good
PM2.5
Thursday Unhealthy for Sensitive Groups
OZONE
Friday Moderate
OZONE
Saturday Moderate
OZONE
Sunday Moderate
OZONE
Monday Moderate
OZONE
Tuesday Moderate
OZONE

Snow Depth

Station Depth Elevation
Leavitt Lake 0 in 9400 ft
Leavitt Meadows 0 in 7200 ft
Blue Lakes 0 in 8000 ft
Forestdale Creek 0 in 8029 ft
Monitor Pass 0 in 8350 ft

Earthquake Activity

City Distance Mag. Time & Date
Napa, California 115 miles 2.6 11:57 AM PDT
2014-08-27
Soledad, California 90 miles 2.6 12:15 PM PDT
2014-08-26
Napa, California 114 miles 3.0 6:45 AM PDT
2014-08-26
American Canyon, California 112 miles 2.8 6:12 AM PDT
2014-08-26
Minimum magnitude displayed is 2.5.

Coastal Water Temperatures

Place Temperature
No Stations Reporting

Nearby Weather Stations